Langston, Oklahoma
Current Conditions -  °F | °C
As of 8:53 PM on Tuesday 25 Nov 2014 (Local Time) from KGOK Reporting Station
Clear Clear  
Wind Chill: 43°   Ceiling: Unl
Heat Index: 47°   Visibility: 10mi
Dew Point: 27°   Wind: 8mph
Humidity: 46%   Direction: 170°S
Pressure: 30.05"   Gusts: NA
Location:  35.95°N, 97.26°W
Report Text: KGOK 260253Z AUTO 17007KT 10SM CLR 08/M03 A3005 RMK AO2 SLP183 T00831028 58010
Loading
Personal Weather Stations






























Interactive Weather Map New forecast layout! Learn more

10-Day Weather Forecast

Advertisements
Track Severe Weather on mobile